createdAt,value
2022-12-27T00:01:11.918Z,52.90
2022-12-27T00:03:41.030Z,53.26
2022-12-27T00:06:12.368Z,53.22
2022-12-27T00:08:40.831Z,52.85
2022-12-27T00:11:10.741Z,53.12
2022-12-27T00:13:39.524Z,53.11
2022-12-27T00:16:11.535Z,52.81
2022-12-27T00:18:40.808Z,53.04
2022-12-27T00:21:12.889Z,53.07
2022-12-27T00:23:43.870Z,53.12
2022-12-27T00:26:14.734Z,52.85
2022-12-27T00:28:43.539Z,52.88
2022-12-27T00:31:12.553Z,52.44
2022-12-27T00:33:42.410Z,52.18
2022-12-27T00:36:14.643Z,52.72
2022-12-27T00:38:43.314Z,52.82
2022-12-27T00:41:12.357Z,52.05
2022-12-27T00:43:41.759Z,52.18
2022-12-27T00:46:11.011Z,52.57
2022-12-27T00:48:39.624Z,52.37
2022-12-27T00:51:09.723Z,52.23
2022-12-27T00:53:42.167Z,52.76
2022-12-27T00:56:12.387Z,52.27
2022-12-27T00:58:41.242Z,52.06
2022-12-27T01:01:15.376Z,52.87
2022-12-27T01:03:44.496Z,52.53
2022-12-27T01:06:14.811Z,52.32
2022-12-27T01:08:45.035Z,52.44
2022-12-27T01:11:14.122Z,52.15
2022-12-27T01:13:42.994Z,52.74
2022-12-27T01:16:12.574Z,52.45
2022-12-27T01:18:41.106Z,52.65
2022-12-27T01:21:11.355Z,52.38
2022-12-27T01:23:40.353Z,52.63
2022-12-27T01:26:12.529Z,52.12
2022-12-27T01:28:42.276Z,52.39
2022-12-27T01:31:12.766Z,52.80
2022-12-27T01:33:41.463Z,52.16
2022-12-27T01:36:12.343Z,52.53
2022-12-27T01:38:42.817Z,52.28
2022-12-27T01:41:34.229Z,52.42
2022-12-27T01:44:02.921Z,52.54
2022-12-27T01:46:31.766Z,52.17
2022-12-27T01:49:02.304Z,52.40
2022-12-27T01:51:32.853Z,52.05
2022-12-27T01:54:01.259Z,52.16
2022-12-27T01:56:32.186Z,52.37
2022-12-27T01:59:03.939Z,52.51
2022-12-27T02:01:35.211Z,52.46
2022-12-27T02:04:07.305Z,52.24
2022-12-27T02:06:37.308Z,52.51
2022-12-27T02:09:12.134Z,52.43
2022-12-27T02:11:55.251Z,52.46
2022-12-27T02:14:28.874Z,52.50
2022-12-27T02:16:58.913Z,52.25
2022-12-27T02:19:40.146Z,52.41
2022-12-27T02:22:23.993Z,52.57
2022-12-27T02:25:04.828Z,52.14
2022-12-27T02:28:00.158Z,52.01
2022-12-27T02:30:30.951Z,52.02
2022-12-27T02:33:03.694Z,52.29
2022-12-27T02:35:35.483Z,52.51
2022-12-27T02:38:08.661Z,51.99
2022-12-27T02:40:57.844Z,52.30
2022-12-27T02:43:44.728Z,52.07
2022-12-27T02:46:36.156Z,51.98
2022-12-27T02:49:22.777Z,51.95
2022-12-27T02:52:17.383Z,52.25
2022-12-27T02:55:09.969Z,52.26
2022-12-27T02:57:42.304Z,52.09
2022-12-27T03:00:30.421Z,51.96
2022-12-27T03:03:37.235Z,52.12
2022-12-27T03:06:39.109Z,52.05
2022-12-27T03:09:37.559Z,52.37
2022-12-27T03:12:26.374Z,52.21
2022-12-27T03:15:17.293Z,52.06
2022-12-27T03:17:50.380Z,52.29
2022-12-27T03:20:38.438Z,52.06
2022-12-27T03:23:27.522Z,52.02
2022-12-27T03:25:56.663Z,51.85
2022-12-27T03:28:46.281Z,52.00
2022-12-27T03:31:35.925Z,51.96
2022-12-27T03:34:27.740Z,52.04
2022-12-27T03:37:18.786Z,52.42
2022-12-27T03:39:51.333Z,52.36
2022-12-27T03:42:41.725Z,52.37
2022-12-27T03:45:10.874Z,52.12
2022-12-27T03:47:42.961Z,52.06
2022-12-27T03:50:15.273Z,52.01
2022-12-27T03:52:47.802Z,51.73
2022-12-27T03:55:16.906Z,52.24
2022-12-27T03:57:45.368Z,51.79
2022-12-27T04:00:15.074Z,51.97
2022-12-27T04:02:45.343Z,51.72
2022-12-27T04:05:13.857Z,52.08
2022-12-27T04:07:59.784Z,52.04
2022-12-27T04:10:46.885Z,51.34
2022-12-27T04:13:32.594Z,51.77
2022-12-27T04:16:18.341Z,51.66
2022-12-27T04:19:04.233Z,51.76
2022-12-27T04:21:50.210Z,51.95
2022-12-27T04:24:35.933Z,51.28
2022-12-27T04:27:23.208Z,51.20
2022-12-27T04:30:09.123Z,51.39
2022-12-27T04:32:54.827Z,51.28
2022-12-27T04:35:23.249Z,51.67
2022-12-27T04:37:51.759Z,51.61
2022-12-27T04:40:37.694Z,51.59
2022-12-27T04:43:26.465Z,51.30
2022-12-27T04:46:12.332Z,51.12
2022-12-27T04:48:58.282Z,51.51
2022-12-27T04:51:44.180Z,51.19
2022-12-27T04:54:33.922Z,51.18
2022-12-27T04:57:02.357Z,51.34
2022-12-27T04:59:49.800Z,51.33
2022-12-27T05:02:19.478Z,51.28
2022-12-27T05:04:49.158Z,50.85
2022-12-27T05:07:35.515Z,51.18
2022-12-27T05:10:23.290Z,51.18
2022-12-27T05:13:09.263Z,51.38
2022-12-27T05:15:39.068Z,51.31
2022-12-27T05:18:07.501Z,51.28
2022-12-27T05:20:36.095Z,50.96
2022-12-27T05:23:22.355Z,51.14
2022-12-27T05:25:50.787Z,51.48
2022-12-27T05:28:19.316Z,51.52
2022-12-27T05:30:49.088Z,51.16
2022-12-27T05:33:17.761Z,51.01
2022-12-27T05:35:46.181Z,51.37
2022-12-27T05:38:14.748Z,51.20
2022-12-27T05:40:43.234Z,51.12
2022-12-27T05:43:11.741Z,51.43
2022-12-27T05:45:40.153Z,51.41
2022-12-27T05:48:09.876Z,51.48
2022-12-27T05:50:38.277Z,51.51
2022-12-27T05:53:11.851Z,51.47
2022-12-27T05:55:40.427Z,51.13
2022-12-27T05:58:08.839Z,51.27
2022-12-27T06:00:37.543Z,51.40
2022-12-27T06:03:06.148Z,51.23
2022-12-27T06:05:36.023Z,51.53
2022-12-27T06:08:04.497Z,51.48
2022-12-27T06:10:32.924Z,51.21
2022-12-27T06:13:01.670Z,51.17
2022-12-27T06:15:30.112Z,50.92
2022-12-27T06:17:59.991Z,51.18
2022-12-27T06:20:28.424Z,51.35
2022-12-27T06:22:59.764Z,51.19
2022-12-27T06:25:28.167Z,51.28
2022-12-27T06:27:56.563Z,50.88
2022-12-27T06:30:25.012Z,51.37
2022-12-27T06:32:53.433Z,50.88
2022-12-27T06:35:21.818Z,51.45
2022-12-27T06:37:50.258Z,50.99
2022-12-27T06:40:21.940Z,50.84
2022-12-27T06:42:50.426Z,51.26
2022-12-27T06:45:19.225Z,50.96
2022-12-27T06:47:47.659Z,50.79
2022-12-27T06:50:16.500Z,50.89
2022-12-27T06:52:47.760Z,50.70
2022-12-27T06:55:16.405Z,51.24
2022-12-27T06:57:46.216Z,50.95
2022-12-27T07:00:16.161Z,50.78
2022-12-27T07:02:44.861Z,50.97
2022-12-27T07:05:13.411Z,50.70
2022-12-27T07:07:41.781Z,51.10
2022-12-27T07:10:10.993Z,50.89
2022-12-27T07:12:39.525Z,50.85
2022-12-27T07:15:10.421Z,50.65
2022-12-27T07:17:39.374Z,50.85
2022-12-27T07:20:09.217Z,50.94
2022-12-27T07:22:37.801Z,50.65
2022-12-27T07:25:07.655Z,50.73
2022-12-27T07:27:36.463Z,51.04
2022-12-27T07:30:06.241Z,50.71
2022-12-27T07:32:36.203Z,50.72
2022-12-27T07:35:05.330Z,50.93
2022-12-27T07:37:33.861Z,50.67
2022-12-27T07:40:02.332Z,50.85
2022-12-27T07:42:30.899Z,50.56
2022-12-27T07:45:00.204Z,50.58
2022-12-27T07:47:28.585Z,50.80
2022-12-27T07:49:58.373Z,50.45
2022-12-27T07:52:27.044Z,50.23
2022-12-27T07:54:55.459Z,50.63
2022-12-27T07:57:24.502Z,50.28
2022-12-27T07:59:52.952Z,50.55
2022-12-27T08:02:21.434Z,50.49
2022-12-27T08:04:49.888Z,50.33
2022-12-27T08:07:20.727Z,50.19
2022-12-27T08:09:49.874Z,50.45
2022-12-27T08:12:18.285Z,50.18
2022-12-27T08:14:46.681Z,50.30
2022-12-27T08:17:20.716Z,50.29
2022-12-27T08:19:52.006Z,50.10
2022-12-27T08:22:22.194Z,50.15
2022-12-27T08:24:51.179Z,50.47
2022-12-27T08:27:23.913Z,50.08
2022-12-27T08:29:52.427Z,50.12
2022-12-27T08:32:20.959Z,49.81
2022-12-27T08:34:49.526Z,50.14
2022-12-27T08:37:17.964Z,50.21
2022-12-27T08:39:47.840Z,50.42
2022-12-27T08:42:16.354Z,50.29
2022-12-27T08:44:45.052Z,49.66
2022-12-27T08:47:14.210Z,49.43
2022-12-27T08:49:42.557Z,49.52
2022-12-27T08:52:10.909Z,49.28
2022-12-27T08:54:39.449Z,49.94
2022-12-27T08:57:09.297Z,49.65
2022-12-27T08:59:37.824Z,49.56
2022-12-27T09:02:06.510Z,49.79
2022-12-27T09:04:35.079Z,49.50
2022-12-27T09:07:03.799Z,49.29
2022-12-27T09:09:32.709Z,49.03
2022-12-27T09:12:04.077Z,49.15
2022-12-27T09:14:38.197Z,49.33
2022-12-27T09:17:07.229Z,49.19
2022-12-27T09:19:36.068Z,49.10
2022-12-27T09:22:04.559Z,49.30
2022-12-27T09:24:33.340Z,49.55
2022-12-27T09:27:01.952Z,49.36
2022-12-27T09:29:30.341Z,48.87
2022-12-27T09:32:00.318Z,49.00
2022-12-27T09:34:28.881Z,48.57
2022-12-27T09:36:57.368Z,48.88
2022-12-27T09:39:25.741Z,49.18
2022-12-27T09:44:50.914Z,49.01
2022-12-27T09:47:24.726Z,48.94
2022-12-27T09:49:54.692Z,48.55
2022-12-27T09:52:27.911Z,48.62
2022-12-27T09:55:04.700Z,48.95
2022-12-27T09:57:37.516Z,48.74
2022-12-27T10:00:14.595Z,48.54
2022-12-27T10:02:45.426Z,48.89
2022-12-27T10:05:21.566Z,48.62
2022-12-27T10:08:00.747Z,48.99
2022-12-27T10:10:42.690Z,48.45
2022-12-27T10:13:20.333Z,48.52
2022-12-27T10:15:52.524Z,48.55
2022-12-27T10:18:41.565Z,48.32
2022-12-27T10:21:19.330Z,48.70
2022-12-27T10:23:54.029Z,48.46
2022-12-27T10:26:22.981Z,48.66
2022-12-27T10:28:57.127Z,47.98
2022-12-27T10:31:26.761Z,47.60
2022-12-27T10:33:56.590Z,48.42
2022-12-27T10:36:28.205Z,48.06
2022-12-27T10:38:56.817Z,47.98
2022-12-27T10:41:35.153Z,47.99
2022-12-27T10:44:04.025Z,47.64
2022-12-27T10:46:33.741Z,47.53
2022-12-27T10:49:20.531Z,47.88
2022-12-27T10:51:50.124Z,47.85
2022-12-27T10:54:22.557Z,48.02
2022-12-27T10:56:51.174Z,47.80
2022-12-27T10:59:21.091Z,47.57
2022-12-27T11:01:51.743Z,47.85
2022-12-27T11:04:22.891Z,47.04
2022-12-27T11:06:52.798Z,47.75
2022-12-27T11:09:30.185Z,47.29
2022-12-27T11:12:13.944Z,47.73
2022-12-27T11:14:55.124Z,47.60
2022-12-27T11:17:26.229Z,47.43
2022-12-27T11:19:57.596Z,47.12
2022-12-27T11:22:26.580Z,47.67
2022-12-27T11:24:58.285Z,46.75
2022-12-27T11:27:29.157Z,47.97
2022-12-27T11:29:59.419Z,47.62
2022-12-27T11:32:28.099Z,47.24
2022-12-27T11:34:58.577Z,47.80
2022-12-27T11:37:27.648Z,47.79
2022-12-27T11:39:56.959Z,47.15
2022-12-27T11:42:33.554Z,47.60
2022-12-27T11:45:10.157Z,47.50
2022-12-27T11:47:42.833Z,47.13
2022-12-27T11:50:38.501Z,47.59
2022-12-27T11:53:13.613Z,46.93
2022-12-27T11:55:54.296Z,48.01
2022-12-27T11:58:55.026Z,48.05
2022-12-27T12:01:44.533Z,47.43
2022-12-27T12:04:38.917Z,47.73
2022-12-27T12:07:18.549Z,46.80
2022-12-27T12:09:57.892Z,47.64
2022-12-27T12:12:54.281Z,47.42
2022-12-27T12:15:43.413Z,48.01
2022-12-27T12:18:23.480Z,47.63
2022-12-27T12:21:05.934Z,47.74
2022-12-27T12:23:50.174Z,47.96
2022-12-27T12:26:19.185Z,48.05
2022-12-27T12:29:11.217Z,47.20
2022-12-27T12:32:05.219Z,47.30
2022-12-27T12:34:47.945Z,47.61
2022-12-27T12:37:26.487Z,47.08
2022-12-27T12:40:10.737Z,47.90
2022-12-27T12:42:46.347Z,47.61
2022-12-27T12:45:33.095Z,46.69
2022-12-27T12:48:34.762Z,47.21
2022-12-27T12:51:12.417Z,47.20
2022-12-27T12:53:51.979Z,46.72
2022-12-27T12:56:38.810Z,46.89
2022-12-27T12:59:26.289Z,46.48
2022-12-27T13:02:05.135Z,47.42
2022-12-27T13:04:44.604Z,47.45
2022-12-27T13:07:28.359Z,47.26
2022-12-27T13:10:28.492Z,47.71
2022-12-27T13:13:02.144Z,46.70
2022-12-27T13:15:40.083Z,47.04
2022-12-27T13:18:21.784Z,46.83
2022-12-27T13:21:07.772Z,47.43
2022-12-27T13:23:45.354Z,47.37
2022-12-27T13:26:21.320Z,47.40
2022-12-27T13:29:06.382Z,47.19
2022-12-27T13:31:41.333Z,47.15
2022-12-27T13:34:22.243Z,47.08
2022-12-27T13:37:02.458Z,47.46
2022-12-27T13:39:42.664Z,47.36
2022-12-27T13:42:36.658Z,47.34
2022-12-27T13:45:16.698Z,47.50
2022-12-27T13:47:57.675Z,47.25
2022-12-27T13:50:44.947Z,47.91
2022-12-27T13:53:46.763Z,47.35
2022-12-27T13:56:52.963Z,47.76
2022-12-27T13:59:36.841Z,47.87
2022-12-27T14:02:30.923Z,47.42
2022-12-27T14:05:19.190Z,47.85
2022-12-27T14:07:57.201Z,47.33
2022-12-27T14:10:36.246Z,47.92
2022-12-27T14:13:07.795Z,48.12
2022-12-27T14:16:01.111Z,47.66
2022-12-27T14:18:53.795Z,48.06
2022-12-27T14:21:45.120Z,47.93
2022-12-27T14:24:22.703Z,47.61
2022-12-27T14:27:35.567Z,48.11
2022-12-27T14:30:20.438Z,47.77
2022-12-27T14:33:31.507Z,48.00
2022-12-27T14:36:38.097Z,48.14
2022-12-27T14:39:24.836Z,47.92
2022-12-27T14:42:15.866Z,48.04
2022-12-27T14:45:11.031Z,48.16
2022-12-27T14:48:33.310Z,48.19
2022-12-27T14:54:56.245Z,48.37
2022-12-27T14:57:34.729Z,48.11
2022-12-27T15:00:11.916Z,48.39
2022-12-27T15:02:52.214Z,47.98
2022-12-27T15:05:32.445Z,47.88
2022-12-27T15:08:15.031Z,48.58
2022-12-27T15:11:02.618Z,48.57
2022-12-27T15:13:44.605Z,48.51
2022-12-27T15:16:17.545Z,47.99
2022-12-27T15:19:04.797Z,48.40
2022-12-27T15:21:48.321Z,48.23
2022-12-27T15:24:27.716Z,48.39
2022-12-27T15:26:59.582Z,48.59
2022-12-27T15:29:36.051Z,48.86
2022-12-27T15:32:12.966Z,48.41
2022-12-27T15:35:00.327Z,48.37
2022-12-27T15:38:01.932Z,48.38
2022-12-27T15:40:42.171Z,48.76
2022-12-27T15:43:22.452Z,48.71
2022-12-27T15:45:59.780Z,48.67
2022-12-27T15:48:59.777Z,48.47
2022-12-27T15:51:34.160Z,48.58
2022-12-27T15:54:20.346Z,48.43
2022-12-27T15:57:21.253Z,48.58
2022-12-27T15:59:51.795Z,48.38
2022-12-27T16:02:36.426Z,48.85
2022-12-27T16:05:13.879Z,49.21
2022-12-27T16:07:45.537Z,48.66
2022-12-27T16:10:33.423Z,48.52
2022-12-27T16:13:18.525Z,48.86
2022-12-27T16:15:52.775Z,48.61
2022-12-27T16:18:44.869Z,48.60
2022-12-27T16:21:18.294Z,48.70
2022-12-27T16:23:51.941Z,48.89
2022-12-27T16:26:22.560Z,48.81
2022-12-27T16:28:57.090Z,48.73
2022-12-27T16:31:26.831Z,48.74
2022-12-27T16:33:58.419Z,49.10
2022-12-27T16:36:29.764Z,48.80
2022-12-27T16:39:31.243Z,49.06
2022-12-27T16:42:09.267Z,48.98
2022-12-27T16:44:48.680Z,48.86
2022-12-27T16:47:41.346Z,49.09
2022-12-27T16:50:43.904Z,49.07
2022-12-27T16:53:20.594Z,49.06
2022-12-27T16:56:03.023Z,49.09
2022-12-27T16:58:36.917Z,48.90
2022-12-27T17:01:06.960Z,48.68
2022-12-27T17:03:59.644Z,49.17
2022-12-27T17:06:57.588Z,49.09
2022-12-27T17:09:45.696Z,48.57
2022-12-27T17:12:24.533Z,48.99
2022-12-27T17:14:58.958Z,49.36
2022-12-27T17:17:27.909Z,49.18
2022-12-27T17:19:59.871Z,48.68
2022-12-27T17:22:34.976Z,48.95
2022-12-27T17:25:04.835Z,49.30
2022-12-27T17:27:48.515Z,49.30
2022-12-27T17:30:20.349Z,49.28
2022-12-27T17:33:10.968Z,48.67
2022-12-27T17:35:51.716Z,49.12
2022-12-27T17:38:30.952Z,49.01
2022-12-27T17:41:11.945Z,48.70
2022-12-27T17:44:08.855Z,49.10
2022-12-27T17:46:42.754Z,49.02
2022-12-27T17:49:11.853Z,48.83
2022-12-27T17:52:02.988Z,49.20
2022-12-27T17:54:50.734Z,49.04
2022-12-27T17:57:38.207Z,49.19
2022-12-27T18:00:08.322Z,49.28
2022-12-27T18:02:41.286Z,48.99
2022-12-27T18:05:14.321Z,49.05
2022-12-27T18:07:43.670Z,48.83
2022-12-27T18:10:20.219Z,49.07
2022-12-27T18:12:52.248Z,49.36
2022-12-27T18:15:23.404Z,49.06
2022-12-27T18:17:54.106Z,48.96
2022-12-27T18:20:35.095Z,49.03
2022-12-27T18:23:24.517Z,49.23
2022-12-27T18:25:56.820Z,48.98
2022-12-27T18:28:32.595Z,48.98
2022-12-27T18:31:06.141Z,48.97
2022-12-27T18:33:35.952Z,49.39
2022-12-27T18:36:06.005Z,49.22
2022-12-27T18:38:36.531Z,49.02
2022-12-27T18:41:08.652Z,49.33
2022-12-27T18:43:37.773Z,49.34
2022-12-27T18:46:06.730Z,49.22
2022-12-27T18:48:36.545Z,48.93
2022-12-27T18:51:05.683Z,49.18
2022-12-27T18:53:36.875Z,48.89
2022-12-27T18:56:09.171Z,49.23
2022-12-27T18:58:37.739Z,49.20
2022-12-27T19:01:14.801Z,49.39
2022-12-27T19:03:43.542Z,49.12
2022-12-27T19:06:13.425Z,49.33
2022-12-27T19:08:46.744Z,49.35
2022-12-27T19:11:22.003Z,49.30
2022-12-27T19:13:51.922Z,49.11
2022-12-27T19:16:24.141Z,49.23
2022-12-27T19:18:54.703Z,49.27
2022-12-27T19:21:30.780Z,49.39
2022-12-27T19:23:59.320Z,49.28
2022-12-27T19:26:32.726Z,49.03
2022-12-27T19:29:04.248Z,48.98
2022-12-27T19:31:32.856Z,49.17
2022-12-27T19:34:03.456Z,49.28
2022-12-27T19:36:34.148Z,49.09
2022-12-27T19:39:03.112Z,49.24
2022-12-27T19:41:33.047Z,48.78
2022-12-27T19:44:03.492Z,48.98
2022-12-27T19:46:32.040Z,49.17
2022-12-27T19:51:50.313Z,48.84
2022-12-27T19:54:21.197Z,48.79
2022-12-27T19:56:51.241Z,48.97
2022-12-27T19:59:22.523Z,48.96
2022-12-27T20:01:51.462Z,49.30
2022-12-27T20:04:20.898Z,48.88
2022-12-27T20:06:49.974Z,49.38
2022-12-27T20:09:20.101Z,49.19
2022-12-27T20:11:51.049Z,49.23
2022-12-27T20:14:19.729Z,49.33
2022-12-27T20:16:48.182Z,49.02
2022-12-27T20:19:18.171Z,49.06
2022-12-27T20:21:46.952Z,48.98
2022-12-27T20:24:15.724Z,49.05
2022-12-27T20:26:44.560Z,49.33
2022-12-27T20:29:15.168Z,49.24
2022-12-27T20:31:48.527Z,49.21
2022-12-27T20:34:17.038Z,49.21
2022-12-27T20:36:45.763Z,49.20
2022-12-27T20:39:14.221Z,49.09
2022-12-27T20:41:42.719Z,49.33
2022-12-27T20:44:11.211Z,49.54
2022-12-27T20:46:41.609Z,49.16
2022-12-27T20:49:10.152Z,49.33
2022-12-27T20:51:38.593Z,49.28
2022-12-27T20:54:07.056Z,49.52
2022-12-27T20:56:36.745Z,49.32
2022-12-27T20:59:05.310Z,48.91
2022-12-27T21:01:33.947Z,49.33
2022-12-27T21:04:04.159Z,49.27
2022-12-27T21:06:32.628Z,49.31
2022-12-27T21:09:01.033Z,49.19
2022-12-27T21:11:31.576Z,49.12
2022-12-27T21:14:01.113Z,49.06
2022-12-27T21:16:31.141Z,49.30
2022-12-27T21:19:02.845Z,49.36
2022-12-27T21:21:34.251Z,49.17
2022-12-27T21:24:02.932Z,49.14
2022-12-27T21:26:33.440Z,48.87
2022-12-27T21:29:03.025Z,49.27
2022-12-27T21:31:32.222Z,49.26
2022-12-27T21:34:01.088Z,49.17
2022-12-27T21:36:32.593Z,49.10
2022-12-27T21:39:02.867Z,48.91
2022-12-27T21:41:33.066Z,49.28
2022-12-27T21:44:02.104Z,48.94
2022-12-27T21:46:31.948Z,49.21
2022-12-27T21:49:02.071Z,48.90
2022-12-27T21:51:32.809Z,48.72
2022-12-27T21:54:01.331Z,49.08
2022-12-27T21:56:30.588Z,49.33
2022-12-27T21:59:00.265Z,49.22
2022-12-27T22:01:30.057Z,48.90
2022-12-27T22:03:59.644Z,49.17
2022-12-27T22:06:29.433Z,48.69
2022-12-27T22:09:00.421Z,49.14
2022-12-27T22:11:29.900Z,49.10
2022-12-27T22:13:58.744Z,48.91
2022-12-27T22:16:28.765Z,49.23
2022-12-27T22:18:57.299Z,48.87
2022-12-27T22:21:27.890Z,48.94
2022-12-27T22:23:57.981Z,48.97
2022-12-27T22:26:29.650Z,48.97
2022-12-27T22:28:58.380Z,48.84
2022-12-27T22:31:30.186Z,48.87
2022-12-27T22:33:58.917Z,48.69
2022-12-27T22:36:28.103Z,48.40
2022-12-27T22:38:56.878Z,48.92
2022-12-27T22:41:28.549Z,48.89
2022-12-27T22:43:58.467Z,48.74
2022-12-27T22:46:27.262Z,48.81
2022-12-27T22:48:57.427Z,48.34
2022-12-27T22:51:28.088Z,48.70
2022-12-27T22:53:57.015Z,48.85
2022-12-27T22:56:28.936Z,48.88
2022-12-27T22:58:57.750Z,48.82
2022-12-27T23:01:27.763Z,48.93
2022-12-27T23:03:57.040Z,48.62
2022-12-27T23:06:26.123Z,48.60
2022-12-27T23:08:54.932Z,48.76
2022-12-27T23:11:26.220Z,48.57
2022-12-27T23:13:58.725Z,48.84
2022-12-27T23:16:27.629Z,48.79
2022-12-27T23:18:56.258Z,48.62
2022-12-27T23:21:24.979Z,48.58
2022-12-27T23:23:53.937Z,48.57
2022-12-27T23:26:24.095Z,48.43
2022-12-27T23:28:53.385Z,48.38
2022-12-27T23:31:24.419Z,48.49
2022-12-27T23:33:53.417Z,48.32
2022-12-27T23:36:23.208Z,48.49
2022-12-27T23:38:51.930Z,48.95
2022-12-27T23:41:23.324Z,48.94
2022-12-27T23:43:54.544Z,48.55
2022-12-27T23:46:28.092Z,48.39
2022-12-27T23:48:57.444Z,48.60
2022-12-27T23:51:25.967Z,48.83
2022-12-27T23:53:54.655Z,48.52
2022-12-27T23:56:24.763Z,48.46
2022-12-27T23:58:54.737Z,48.39
